Time;durP1;ratioP1;P1;durP2;ratioP2;P2;SDS_P1;SDS_P2;PMS_P1;PMS_P2;Temp;Humidity;BMP_temperature;BMP_pressure;BME280_temperature;BME280_humidity;BME280_pressure;Samples;Min_cycle;Max_cycle;Signal;HPM_P1;HPM_P2
2022/08/28 00:02:13;;;;;;;;;;;20.90;85.50;;;;;;5056722;28;19946;-96
2022/08/28 00:04:38;;;;;;;;;;;21.00;85.50;;;;;;5056783;28;19945;-96
2022/08/28 00:07:04;;;;;;;;;;;21.10;85.20;;;;;;5056967;28;19936;-96
2022/08/28 00:09:30;;;;;;;;;;;21.10;84.90;;;;;;5055672;28;19951;-96
2022/08/28 00:11:56;;;;;;;;;;;21.00;84.90;;;;;;5056738;28;20024;-96
2022/08/28 00:14:22;;;;;;;;;;;20.90;85.20;;;;;;5056189;28;19941;-96
2022/08/28 00:16:48;;;;;;;;;;;20.90;85.60;;;;;;5038746;28;19968;-96
2022/08/28 00:19:14;;;;;;;;;;;21.00;85.50;;;;;;5057464;28;20031;-96
2022/08/28 00:21:40;;;;;;;;;;;21.00;85.40;;;;;;5038892;28;20039;-96
2022/08/28 00:24:06;;;;;;;;;;;21.10;85.60;;;;;;5056306;28;19981;-96
2022/08/28 00:29:15;;;;;;;;;;;21.00;85.60;;;;;;5056638;28;20031;-96
2022/08/28 00:31:41;;;;;;;;;;;20.90;85.70;;;;;;5038301;28;20313;-96
2022/08/28 00:34:07;;;;;;;;;;;20.90;85.80;;;;;;5056847;28;19948;-96
2022/08/28 00:36:32;;;;;;;;;;;21.00;85.70;;;;;;5056585;28;20010;-96
2022/08/28 00:39:01;;;;;;;;;;;21.00;85.40;;;;;;5038303;28;19949;-96
2022/08/28 00:41:29;;;;;;;;;;;21.00;85.40;;;;;;5056569;28;19948;-96
2022/08/28 00:44:13;;;;;;;;;;;21.10;85.00;;;;;;5056628;28;19951;-96
2022/08/28 00:46:39;;;;;;;;;;;21.10;84.70;;;;;;5056668;28;19945;-96
2022/08/28 00:49:06;;;;;;;;;;;21.10;84.90;;;;;;5056247;28;19947;-96
2022/08/28 00:54:18;;;;;;;;;;;21.10;85.00;;;;;;5055369;28;20306;-96
2022/08/28 00:56:43;;;;;;;;;;;21.20;84.90;;;;;;5055970;28;20022;-96
2022/08/28 00:59:13;;;;;;;;;;;21.20;85.10;;;;;;5055972;28;19999;-96
2022/08/28 01:01:39;;;;;;;;;;;21.20;84.80;;;;;;5038177;28;19944;-96
2022/08/28 01:04:05;;;;;;;;;;;21.20;84.80;;;;;;5057206;28;19959;-96
2022/08/28 01:06:31;;;;;;;;;;;21.20;84.60;;;;;;5041636;28;19946;-96
2022/08/28 01:08:57;;;;;;;;;;;21.20;84.30;;;;;;5059500;28;20032;-96
2022/08/28 01:11:23;;;;;;;;;;;21.20;84.50;;;;;;5040992;28;19973;-96
2022/08/28 01:13:49;;;;;;;;;;;21.30;84.30;;;;;;5059531;28;19954;-96
2022/08/28 01:16:17;;;;;;;;;;;21.20;84.60;;;;;;5041612;28;19960;-96
2022/08/28 01:18:44;;;;;;;;;;;21.30;84.70;;;;;;5041218;28;19948;-96
2022/08/28 01:21:16;;;;;;;;;;;21.30;84.50;;;;;;5041338;28;19973;-96
2022/08/28 01:24:00;;;;;;;;;;;21.20;84.70;;;;;;5059522;28;19945;-96
2022/08/28 01:26:27;;;;;;;;;;;21.20;84.70;;;;;;5059119;28;19990;-96
2022/08/28 01:28:53;;;;;;;;;;;21.20;85.50;;;;;;5059145;28;19943;-96
2022/08/28 01:31:19;;;;;;;;;;;21.10;85.20;;;;;;5041444;28;19947;-96
2022/08/28 01:33:45;;;;;;;;;;;21.20;85.30;;;;;;5059184;28;19941;-96
2022/08/28 01:36:12;;;;;;;;;;;21.20;85.10;;;;;;5059396;28;20004;-96
2022/08/28 01:38:38;;;;;;;;;;;21.20;85.30;;;;;;5059632;28;19938;-96
2022/08/28 01:41:04;;;;;;;;;;;21.20;85.40;;;;;;5040470;28;19970;-96
2022/08/28 01:43:30;;;;;;;;;;;21.20;85.60;;;;;;5059020;28;19942;-96
2022/08/28 01:45:59;;;;;;;;;;;21.20;85.70;;;;;;5059029;28;19939;-96
2022/08/28 01:48:25;;;;;;;;;;;21.10;85.70;;;;;;5041382;28;20026;-96
2022/08/28 01:50:51;;;;;;;;;;;21.10;85.80;;;;;;5059597;28;19982;-96
2022/08/28 01:53:22;;;;;;;;;;;21.00;85.90;;;;;;5058623;28;19946;-96
2022/08/28 01:55:47;;;;;;;;;;;21.00;85.90;;;;;;5039987;28;19971;-96
2022/08/28 01:58:13;;;;;;;;;;;21.00;85.90;;;;;;5041117;28;20451;-96
2022/08/28 02:00:39;;;;;;;;;;;21.00;86.10;;;;;;5058610;28;19939;-96
2022/08/28 02:03:05;;;;;;;;;;;21.10;86.00;;;;;;5058241;28;19997;-96
2022/08/28 02:05:31;;;;;;;;;;;21.10;85.90;;;;;;5040408;28;20014;-96
2022/08/28 02:07:58;;;;;;;;;;;21.10;85.90;;;;;;5057787;28;19946;-96
2022/08/28 02:10:25;;;;;;;;;;;21.10;86.20;;;;;;5057679;28;19936;-96
2022/08/28 02:12:51;;;;;;;;;;;20.90;86.60;;;;;;5057961;28;19948;-96
2022/08/28 02:15:17;;;;;;;;;;;20.90;87.30;;;;;;5058134;28;19943;-96
2022/08/28 02:17:43;;;;;;;;;;;20.80;87.70;;;;;;5057735;28;20400;-96
2022/08/28 02:20:08;;;;;;;;;;;20.80;87.90;;;;;;5057856;28;20034;-95
2022/08/28 02:22:34;;;;;;;;;;;20.60;87.90;;;;;;5057796;28;19939;-96
2022/08/28 02:25:00;;;;;;;;;;;20.60;87.90;;;;;;5058185;28;19988;-96
2022/08/28 02:27:25;;;;;;;;;;;20.60;87.80;;;;;;5039749;28;20352;-96
2022/08/28 02:29:51;;;;;;;;;;;20.80;87.40;;;;;;5039180;28;19941;-96
2022/08/28 02:32:17;;;;;;;;;;;20.80;87.10;;;;;;5039126;28;20313;-96
2022/08/28 02:34:43;;;;;;;;;;;20.80;86.60;;;;;;5039151;28;19944;-96
2022/08/28 02:37:12;;;;;;;;;;;20.80;86.40;;;;;;5057165;28;20006;-96
2022/08/28 02:39:38;;;;;;;;;;;20.80;86.10;;;;;;5058198;28;19945;-95
2022/08/28 02:42:04;;;;;;;;;;;20.70;86.10;;;;;;5057401;28;20010;-96
2022/08/28 02:44:29;;;;;;;;;;;20.70;86.30;;;;;;5039292;28;19947;-96
2022/08/28 02:46:55;;;;;;;;;;;20.70;86.50;;;;;;5039669;28;19948;-96
2022/08/28 02:49:22;;;;;;;;;;;20.60;86.30;;;;;;5040153;28;19995;-96
2022/08/28 02:51:49;;;;;;;;;;;20.60;86.40;;;;;;5056475;28;20026;-96
2022/08/28 02:54:15;;;;;;;;;;;20.70;86.70;;;;;;5038306;28;19940;-96
2022/08/28 02:56:40;;;;;;;;;;;20.60;86.50;;;;;;5038985;28;19968;-96
2022/08/28 02:59:06;;;;;;;;;;;20.70;86.50;;;;;;5039475;28;20033;-95
2022/08/28 03:01:32;;;;;;;;;;;20.60;86.50;;;;;;5057206;28;20413;-96
2022/08/28 03:04:01;;;;;;;;;;;20.60;86.70;;;;;;5057381;28;20003;-96
2022/08/28 03:06:27;;;;;;;;;;;20.50;86.70;;;;;;5058113;28;19944;-96
2022/08/28 03:08:53;;;;;;;;;;;20.60;86.80;;;;;;5058569;28;19940;-96
2022/08/28 03:11:19;;;;;;;;;;;20.50;86.90;;;;;;5057401;28;19939;-96
2022/08/28 03:13:44;;;;;;;;;;;20.50;86.90;;;;;;5057082;28;19959;-96
2022/08/28 03:16:10;;;;;;;;;;;20.50;86.80;;;;;;5057650;28;20003;-96
2022/08/28 03:18:35;;;;;;;;;;;20.50;86.60;;;;;;5057552;28;19950;-96
2022/08/28 03:21:01;;;;;;;;;;;20.50;86.70;;;;;;5040196;28;19946;-96
2022/08/28 03:23:27;;;;;;;;;;;20.40;86.90;;;;;;5057409;28;20300;-96
2022/08/28 03:25:52;;;;;;;;;;;20.30;87.10;;;;;;5056481;28;19937;-96
2022/08/28 03:28:18;;;;;;;;;;;20.20;87.70;;;;;;5038807;28;20387;-96
2022/08/28 03:30:44;;;;;;;;;;;20.10;88.10;;;;;;5039953;28;19958;-96
2022/08/28 03:33:09;;;;;;;;;;;20.10;88.30;;;;;;5056729;28;19947;-96
2022/08/28 03:35:36;;;;;;;;;;;20.10;88.30;;;;;;5057748;28;19937;-96
2022/08/28 03:38:02;;;;;;;;;;;20.10;88.40;;;;;;5039870;28;19964;-96
2022/08/28 03:40:29;;;;;;;;;;;20.10;88.40;;;;;;5056820;28;19969;-96
2022/08/28 03:42:54;;;;;;;;;;;20.20;87.90;;;;;;5057202;28;20469;-96
2022/08/28 03:45:20;;;;;;;;;;;20.20;87.80;;;;;;5038657;28;20020;-96
2022/08/28 03:47:46;;;;;;;;;;;20.20;87.80;;;;;;5056986;28;19941;-96
2022/08/28 03:50:11;;;;;;;;;;;20.10;88.00;;;;;;5038532;28;19943;-96
2022/08/28 03:52:38;;;;;;;;;;;20.10;88.10;;;;;;5056601;28;19937;-96
2022/08/28 03:55:06;;;;;;;;;;;20.00;88.20;;;;;;5055985;28;19937;-96
2022/08/28 03:57:32;;;;;;;;;;;19.90;88.50;;;;;;5046048;23;19977;-96
2022/08/28 03:59:58;;;;;;;;;;;20.00;88.60;;;;;;5015409;28;19941;-96
2022/08/28 04:02:24;;;;;;;;;;;19.90;88.40;;;;;;5017282;28;19941;-96
2022/08/28 04:04:50;;;;;;;;;;;19.90;88.30;;;;;;5016656;28;20006;-96
2022/08/28 04:07:16;;;;;;;;;;;19.90;88.10;;;;;;5016332;28;19941;-95
2022/08/28 04:09:42;;;;;;;;;;;19.90;88.00;;;;;;5015388;28;20072;-96
2022/08/28 04:12:08;;;;;;;;;;;19.60;88.20;;;;;;5015121;28;19974;-95
2022/08/28 04:14:34;;;;;;;;;;;19.50;88.50;;;;;;5017213;28;19945;-96
2022/08/28 04:17:00;;;;;;;;;;;19.50;88.80;;;;;;5017267;28;19975;-96
2022/08/28 04:19:25;;;;;;;;;;;19.60;88.60;;;;;;5017672;28;19945;-96
2022/08/28 04:21:51;;;;;;;;;;;19.60;88.30;;;;;;5016514;28;20360;-96
2022/08/28 04:24:17;;;;;;;;;;;19.60;88.10;;;;;;5016659;28;19943;-95
2022/08/28 04:26:43;;;;;;;;;;;19.70;87.50;;;;;;5031273;28;19941;-96
2022/08/28 04:29:08;;;;;;;;;;;19.70;87.00;;;;;;5016372;28;19964;-96
2022/08/28 04:31:34;;;;;;;;;;;19.80;86.30;;;;;;5015547;28;20412;-95
2022/08/28 04:34:00;;;;;;;;;;;20.00;85.70;;;;;;5016053;28;19941;-96
2022/08/28 04:36:26;;;;;;;;;;;20.00;86.10;;;;;;5038585;28;19970;-95
2022/08/28 04:38:51;;;;;;;;;;;19.80;86.20;;;;;;5037620;28;19940;-96
2022/08/28 04:41:18;;;;;;;;;;;19.80;86.20;;;;;;5038739;28;19942;-95
2022/08/28 04:43:43;;;;;;;;;;;19.80;86.10;;;;;;5036892;28;19943;-95
2022/08/28 04:46:11;;;;;;;;;;;19.70;86.30;;;;;;5038423;28;20428;-96
2022/08/28 04:48:37;;;;;;;;;;;19.70;86.80;;;;;;5036660;28;19987;-96
2022/08/28 04:51:08;;;;;;;;;;;19.50;87.20;;;;;;5037008;28;20013;-96
2022/08/28 04:53:34;;;;;;;;;;;19.50;87.30;;;;;;5036291;28;20297;-96
2022/08/28 04:56:02;;;;;;;;;;;19.50;87.50;;;;;;5039551;28;20074;-96
2022/08/28 04:58:29;;;;;;;;;;;19.50;87.30;;;;;;5037391;28;19989;-96
2022/08/28 05:00:55;;;;;;;;;;;19.70;87.30;;;;;;5037729;28;19990;-96
2022/08/28 05:03:21;;;;;;;;;;;19.70;87.00;;;;;;5035941;28;19944;-96
2022/08/28 05:05:48;;;;;;;;;;;19.70;86.80;;;;;;5038153;28;19955;-96
2022/08/28 05:08:15;;;;;;;;;;;19.80;86.70;;;;;;5037450;28;20002;-96
2022/08/28 05:10:41;;;;;;;;;;;19.80;86.50;;;;;;5037812;28;19973;-96
2022/08/28 05:13:08;;;;;;;;;;;19.80;86.70;;;;;;5037133;28;19950;-95
2022/08/28 05:15:40;;;;;;;;;;;19.60;87.40;;;;;;5037249;28;19936;-96
2022/08/28 05:18:06;;;;;;;;;;;19.60;87.70;;;;;;5037084;28;20054;-96
2022/08/28 05:20:36;;;;;;;;;;;19.60;87.90;;;;;;5037624;28;20033;-96
2022/08/28 05:23:01;;;;;;;;;;;19.80;87.90;;;;;;5035574;28;20399;-95
2022/08/28 05:25:27;;;;;;;;;;;19.70;87.80;;;;;;5037230;28;19943;-96
2022/08/28 05:27:53;;;;;;;;;;;19.80;87.80;;;;;;5037129;28;19942;-96
2022/08/28 05:30:18;;;;;;;;;;;19.80;88.00;;;;;;5037310;28;19947;-96
2022/08/28 05:32:44;;;;;;;;;;;19.90;88.50;;;;;;5037297;28;19964;-96
2022/08/28 05:35:11;;;;;;;;;;;19.90;88.60;;;;;;5035733;28;20376;-96
2022/08/28 05:37:36;;;;;;;;;;;19.90;88.50;;;;;;5037530;28;20049;-96
2022/08/28 05:40:02;;;;;;;;;;;20.00;88.20;;;;;;5035984;28;20388;-96
2022/08/28 05:42:28;;;;;;;;;;;20.20;88.10;;;;;;5037141;28;19944;-96
2022/08/28 05:44:53;;;;;;;;;;;20.20;87.70;;;;;;5037297;28;19985;-96
2022/08/28 05:47:19;;;;;;;;;;;20.30;87.40;;;;;;5037271;28;19952;-96
2022/08/28 05:49:45;;;;;;;;;;;20.30;87.00;;;;;;5037024;28;19944;-96
2022/08/28 05:52:11;;;;;;;;;;;20.40;86.80;;;;;;5038244;28;19940;-96
2022/08/28 05:54:36;;;;;;;;;;;20.40;86.70;;;;;;5052938;28;19964;-96
2022/08/28 05:57:02;;;;;;;;;;;20.50;86.70;;;;;;5036204;28;20042;-96
2022/08/28 05:59:28;;;;;;;;;;;20.60;86.90;;;;;;5036115;28;19940;-96
2022/08/28 06:01:53;;;;;;;;;;;20.60;86.70;;;;;;5039252;28;20461;-96
2022/08/28 06:04:23;;;;;;;;;;;20.80;86.20;;;;;;5039032;28;20300;-96
2022/08/28 06:06:48;;;;;;;;;;;20.80;85.20;;;;;;5040334;28;19944;-96
2022/08/28 06:09:18;;;;;;;;;;;21.00;84.60;;;;;;5042220;28;19950;-96
2022/08/28 06:11:44;;;;;;;;;;;21.20;84.40;;;;;;5040828;28;19940;-96
2022/08/28 06:14:13;;;;;;;;;;;21.40;83.50;;;;;;5042590;28;19951;-96
2022/08/28 06:16:41;;;;;;;;;;;21.50;83.20;;;;;;5044367;28;19982;-96
2022/08/28 06:19:08;;;;;;;;;;;21.70;82.80;;;;;;5043840;28;19947;-96
2022/08/28 06:21:34;;;;;;;;;;;21.80;82.60;;;;;;5044730;28;19946;-96
2022/08/28 06:24:00;;;;;;;;;;;21.90;82.40;;;;;;5044378;28;20406;-96
2022/08/28 06:26:26;;;;;;;;;;;22.00;81.80;;;;;;5059869;28;19940;-96
2022/08/28 06:28:52;;;;;;;;;;;22.20;81.50;;;;;;5044389;28;19943;-96
2022/08/28 06:31:18;;;;;;;;;;;22.30;80.90;;;;;;5044580;28;19949;-96
2022/08/28 06:33:45;;;;;;;;;;;22.40;80.50;;;;;;5044685;28;20079;-96
2022/08/28 06:36:11;;;;;;;;;;;22.50;80.20;;;;;;5045492;28;19962;-96
2022/08/28 06:38:36;;;;;;;;;;;22.60;80.30;;;;;;5044975;28;19942;-96
2022/08/28 06:41:07;;;;;;;;;;;22.70;80.60;;;;;;5042335;28;19949;-96
2022/08/28 06:43:33;;;;;;;;;;;22.80;80.20;;;;;;5041845;28;19948;-96
2022/08/28 06:45:59;;;;;;;;;;;22.80;79.40;;;;;;5041639;28;19938;-96
2022/08/28 06:48:26;;;;;;;;;;;22.80;79.00;;;;;;5057945;28;19968;-96
2022/08/28 06:50:52;;;;;;;;;;;22.90;78.90;;;;;;5044053;28;19948;-96
2022/08/28 06:53:20;;;;;;;;;;;23.00;78.80;;;;;;5043750;28;19953;-96
2022/08/28 06:55:54;;;;;;;;;;;22.90;78.40;;;;;;5047577;28;19972;-96
2022/08/28 06:58:20;;;;;;;;;;;23.00;78.40;;;;;;5043629;28;19962;-96
2022/08/28 07:00:45;;;;;;;;;;;23.00;78.60;;;;;;5044603;28;19942;-96
2022/08/28 07:03:12;;;;;;;;;;;23.10;78.50;;;;;;5063790;28;20008;-96
2022/08/28 07:05:37;;;;;;;;;;;23.20;78.40;;;;;;5062945;28;19970;-96
2022/08/28 07:08:03;;;;;;;;;;;23.20;78.20;;;;;;5063003;28;19950;-96
2022/08/28 07:10:30;;;;;;;;;;;23.30;77.70;;;;;;5046139;28;20048;-96
2022/08/28 07:12:56;;;;;;;;;;;23.30;76.90;;;;;;5064051;28;19939;-96
2022/08/28 07:15:21;;;;;;;;;;;23.40;76.10;;;;;;5063554;28;19941;-96
2022/08/28 07:17:47;;;;;;;;;;;23.50;75.60;;;;;;5064102;28;19967;-96
2022/08/28 07:20:13;;;;;;;;;;;23.60;75.10;;;;;;5064007;28;20025;-96
2022/08/28 07:22:39;;;;;;;;;;;23.70;74.90;;;;;;5064197;28;19943;-96
2022/08/28 07:25:06;;;;;;;;;;;23.80;74.50;;;;;;5062260;28;19994;-96
2022/08/28 07:27:32;;;;;;;;;;;23.90;73.80;;;;;;5045202;28;19976;-96
2022/08/28 07:29:58;;;;;;;;;;;23.90;74.60;;;;;;5064650;28;19948;-96
2022/08/28 07:32:23;;;;;;;;;;;24.00;74.00;;;;;;5063209;28;20037;-96
2022/08/28 07:34:49;;;;;;;;;;;24.00;72.90;;;;;;5062753;28;19950;-96
2022/08/28 07:37:16;;;;;;;;;;;24.20;73.10;;;;;;5063757;28;20052;-96
2022/08/28 07:39:42;;;;;;;;;;;24.30;72.00;;;;;;5064256;28;20461;-96
2022/08/28 07:42:08;;;;;;;;;;;24.40;71.60;;;;;;5047398;28;19947;-96
2022/08/28 07:44:49;;;;;;;;;;;24.50;71.10;;;;;;5062934;28;20364;-96
2022/08/28 07:47:16;;;;;;;;;;;24.60;70.40;;;;;;5064556;28;19942;-96
2022/08/28 07:49:41;;;;;;;;;;;24.70;69.60;;;;;;5046683;28;19951;-96
2022/08/28 07:52:08;;;;;;;;;;;24.70;69.20;;;;;;5064363;28;20315;-96
2022/08/28 07:54:34;;;;;;;;;;;24.70;69.70;;;;;;5065133;28;19941;-96
2022/08/28 07:57:04;;;;;;;;;;;24.80;69.60;;;;;;5046928;28;20435;-96
2022/08/28 07:59:30;;;;;;;;;;;24.80;69.70;;;;;;5047118;28;19949;-96
2022/08/28 08:01:56;;;;;;;;;;;24.90;68.70;;;;;;5047215;28;19945;-96
2022/08/28 08:04:23;;;;;;;;;;;25.00;68.10;;;;;;5047786;28;20298;-95
2022/08/28 08:06:50;;;;;;;;;;;25.10;67.90;;;;;;5047456;28;19941;-96
2022/08/28 08:09:17;;;;;;;;;;;25.00;67.50;;;;;;5046571;28;20001;-96
2022/08/28 08:11:43;;;;;;;;;;;25.10;68.70;;;;;;5065587;28;19985;-96
2022/08/28 08:14:09;;;;;;;;;;;25.20;67.40;;;;;;5068979;28;19940;-96
2022/08/28 08:16:37;;;;;;;;;;;25.20;66.20;;;;;;5068925;28;19968;-96
2022/08/28 08:19:03;;;;;;;;;;;25.20;65.70;;;;;;5050877;28;19993;-96
2022/08/28 08:21:29;;;;;;;;;;;25.30;65.20;;;;;;5066755;28;19941;-96
2022/08/28 08:23:55;;;;;;;;;;;25.30;65.60;;;;;;5068097;28;19944;-96
2022/08/28 08:26:22;;;;;;;;;;;25.30;66.50;;;;;;5067880;28;19947;-96
2022/08/28 08:28:51;;;;;;;;;;;25.50;67.20;;;;;;5050436;28;20030;-96
2022/08/28 08:31:20;;;;;;;;;;;25.50;66.30;;;;;;5067853;28;19944;-95
2022/08/28 08:33:47;;;;;;;;;;;25.50;65.30;;;;;;5049607;28;19948;-96
2022/08/28 08:36:13;;;;;;;;;;;25.60;64.90;;;;;;5066569;28;20025;-96
2022/08/28 08:38:39;;;;;;;;;;;25.60;65.10;;;;;;5067764;28;19963;-96
2022/08/28 08:41:13;;;;;;;;;;;25.70;65.40;;;;;;5050043;28;19971;-96
2022/08/28 08:43:50;;;;;;;;;;;25.80;64.70;;;;;;5067217;28;19944;-96
2022/08/28 08:46:16;;;;;;;;;;;25.80;65.70;;;;;;5051106;28;19993;-96
2022/08/28 08:48:43;;;;;;;;;;;25.90;64.80;;;;;;5068088;28;19938;-96
2022/08/28 08:51:16;;;;;;;;;;;26.00;63.00;;;;;;5049622;28;19977;-96
2022/08/28 08:53:57;;;;;;;;;;;26.10;62.60;;;;;;5049348;28;20006;-96
2022/08/28 08:56:23;;;;;;;;;;;26.10;62.30;;;;;;5066864;28;19981;-96
2022/08/28 08:58:51;;;;;;;;;;;26.20;62.10;;;;;;5066766;28;19939;-96
2022/08/28 09:01:20;;;;;;;;;;;26.20;62.20;;;;;;5066135;28;19971;-96
2022/08/28 09:03:46;;;;;;;;;;;26.10;61.20;;;;;;5064188;28;19942;-96
2022/08/28 09:06:30;;;;;;;;;;;26.20;61.60;;;;;;5064503;28;19953;-96
2022/08/28 09:08:57;;;;;;;;;;;26.30;62.70;;;;;;5068681;28;19948;-96
2022/08/28 09:11:45;;;;;;;;;;;26.40;62.40;;;;;;5067674;28;19964;-96
2022/08/28 09:14:15;;;;;;;;;;;26.40;61.70;;;;;;5069372;28;19947;-96
2022/08/28 09:16:41;;;;;;;;;;;26.50;61.20;;;;;;5070548;28;20397;-96
2022/08/28 09:19:10;;;;;;;;;;;26.50;61.70;;;;;;5069296;28;19940;-96
2022/08/28 09:21:38;;;;;;;;;;;26.60;62.30;;;;;;5053975;28;19948;-96
2022/08/28 09:24:07;;;;;;;;;;;26.80;61.70;;;;;;5070774;28;20005;-96
2022/08/28 09:26:33;;;;;;;;;;;26.80;61.00;;;;;;5053096;28;19980;-96
2022/08/28 09:29:15;;;;;;;;;;;26.80;59.50;;;;;;5070714;28;19953;-96
2022/08/28 09:31:41;;;;;;;;;;;26.80;59.90;;;;;;5052877;28;19951;-96
2022/08/28 09:34:33;;;;;;;;;;;26.70;60.70;;;;;;5069227;28;19946;-96
2022/08/28 09:36:59;;;;;;;;;;;26.80;61.30;;;;;;5069324;28;19973;-96
2022/08/28 09:39:27;;;;;;;;;;;26.90;60.30;;;;;;5052917;28;19939;-96
2022/08/28 09:44:49;;;;;;;;;;;27.20;61.10;;;;;;5067690;28;19957;-96
2022/08/28 09:47:34;;;;;;;;;;;27.20;58.30;;;;;;5070309;28;19989;-96
2022/08/28 09:50:20;;;;;;;;;;;27.20;58.40;;;;;;5070240;28;19950;-96
2022/08/28 09:52:46;;;;;;;;;;;27.30;59.60;;;;;;5052744;28;20026;-96
2022/08/28 09:55:17;;;;;;;;;;;27.30;58.60;;;;;;5070605;28;19943;-96
2022/08/28 09:57:44;;;;;;;;;;;27.40;58.00;;;;;;5052845;28;19969;-96
2022/08/28 10:00:10;;;;;;;;;;;27.40;57.30;;;;;;5071581;28;19947;-96
2022/08/28 10:02:42;;;;;;;;;;;27.50;56.10;;;;;;5053146;28;19942;-96
2022/08/28 10:05:11;;;;;;;;;;;27.60;56.40;;;;;;5068937;28;20013;-96
2022/08/28 10:07:41;;;;;;;;;;;27.60;57.00;;;;;;5070302;28;19944;-96
2022/08/28 10:10:07;;;;;;;;;;;27.60;58.20;;;;;;5069925;28;19970;-96
2022/08/28 10:12:32;;;;;;;;;;;27.60;58.10;;;;;;5069802;28;19948;-96
2022/08/28 10:15:21;;;;;;;;;;;27.70;57.80;;;;;;5069803;28;20017;-96
2022/08/28 10:18:05;;;;;;;;;;;27.70;57.30;;;;;;5068770;28;20110;-96
2022/08/28 10:20:48;;;;;;;;;;;27.80;57.00;;;;;;5071256;28;19942;-96
2022/08/28 10:23:27;;;;;;;;;;;27.90;56.60;;;;;;5052536;28;19972;-96
2022/08/28 10:26:09;;;;;;;;;;;28.00;55.70;;;;;;5070128;28;20370;-96
2022/08/28 10:28:44;;;;;;;;;;;28.10;56.40;;;;;;5049663;28;19939;-96
2022/08/28 10:31:16;;;;;;;;;;;28.20;56.50;;;;;;5066733;28;20112;-96
2022/08/28 10:33:49;;;;;;;;;;;28.20;55.70;;;;;;5067835;28;20333;-96
2022/08/28 10:36:19;;;;;;;;;;;28.20;56.10;;;;;;5064994;28;19961;-96
2022/08/28 10:38:48;;;;;;;;;;;28.20;55.10;;;;;;5067893;28;19946;-96
2022/08/28 10:41:17;;;;;;;;;;;28.40;56.40;;;;;;5049958;28;19945;-96
2022/08/28 10:43:48;;;;;;;;;;;28.50;55.20;;;;;;5069539;28;19944;-96
2022/08/28 10:46:17;;;;;;;;;;;28.70;54.50;;;;;;5067549;28;19994;-96
2022/08/28 10:48:48;;;;;;;;;;;28.70;53.20;;;;;;5067026;28;19941;-96
2022/08/28 10:51:22;;;;;;;;;;;28.40;53.30;;;;;;5050152;28;20014;-96
2022/08/28 10:53:51;;;;;;;;;;;28.40;55.70;;;;;;5067715;28;19957;-96
2022/08/28 10:56:24;;;;;;;;;;;28.50;55.40;;;;;;5048781;28;19983;-96
2022/08/28 10:58:53;;;;;;;;;;;28.50;55.00;;;;;;5066791;28;19946;-96
2022/08/28 11:01:31;;;;;;;;;;;28.70;53.40;;;;;;5050199;28;19946;-96
2022/08/28 11:04:01;;;;;;;;;;;28.90;55.10;;;;;;5069280;28;20048;-96
2022/08/28 11:06:40;;;;;;;;;;;29.30;54.50;;;;;;5053441;28;19947;-96
2022/08/28 11:09:25;;;;;;;;;;;29.60;51.60;;;;;;5071623;28;19941;-96
2022/08/28 11:11:55;;;;;;;;;;;29.70;51.30;;;;;;5048332;28;19941;-96
2022/08/28 11:14:35;;;;;;;;;;;30.00;52.40;;;;;;5065922;28;19957;-96
2022/08/28 11:17:08;;;;;;;;;;;30.10;51.80;;;;;;5065963;28;20084;-96
2022/08/28 11:19:42;;;;;;;;;;;30.20;50.40;;;;;;5043564;28;19990;-96
2022/08/28 11:22:11;;;;;;;;;;;29.90;52.00;;;;;;5063824;28;19937;-96
2022/08/28 11:24:42;;;;;;;;;;;30.00;50.60;;;;;;5067176;28;19981;-96
2022/08/28 11:27:18;;;;;;;;;;;29.90;51.20;;;;;;5068572;28;19936;-96
2022/08/28 11:29:57;;;;;;;;;;;29.90;50.30;;;;;;5069320;28;19940;-96
2022/08/28 11:32:32;;;;;;;;;;;30.00;48.80;;;;;;5051701;28;19943;-96
2022/08/28 11:35:04;;;;;;;;;;;30.20;49.40;;;;;;5068698;28;19943;-96
2022/08/28 11:37:43;;;;;;;;;;;30.40;48.70;;;;;;5052087;28;19970;-96
2022/08/28 11:40:16;;;;;;;;;;;30.70;50.30;;;;;;5069719;28;20415;-96
2022/08/28 11:42:47;;;;;;;;;;;30.90;49.50;;;;;;5069116;28;19952;-96
2022/08/28 11:45:31;;;;;;;;;;;31.30;48.30;;;;;;5069643;28;19938;-96
2022/08/28 11:47:57;;;;;;;;;;;31.70;46.80;;;;;;5070614;28;19955;-96
2022/08/28 11:50:26;;;;;;;;;;;32.00;44.30;;;;;;5053433;28;19944;-96
2022/08/28 11:53:04;;;;;;;;;;;32.10;46.30;;;;;;5067099;28;19946;-96
2022/08/28 11:55:59;;;;;;;;;;;31.80;44.50;;;;;;5082974;22;20004;-97
2022/08/28 11:58:40;;;;;;;;;;;31.30;45.50;;;;;;5064324;28;21685;-96
2022/08/28 12:01:10;;;;;;;;;;;30.50;46.60;;;;;;5073137;28;19953;-96
2022/08/28 12:03:40;;;;;;;;;;;30.20;48.50;;;;;;5073961;28;19979;-96
2022/08/28 12:06:08;;;;;;;;;;;30.40;48.40;;;;;;5074095;28;19951;-96
2022/08/28 12:08:49;;;;;;;;;;;30.70;47.10;;;;;;5074728;28;19953;-96
2022/08/28 12:11:34;;;;;;;;;;;31.20;45.10;;;;;;5076658;28;19956;-97
2022/08/28 12:14:28;;;;;;;;;;;31.70;44.40;;;;;;5078026;28;19949;-96
2022/08/28 12:17:01;;;;;;;;;;;31.80;44.20;;;;;;5077729;28;19987;-96
2022/08/28 12:19:44;;;;;;;;;;;32.50;43.10;;;;;;5087636;22;20014;-96
2022/08/28 12:22:11;;;;;;;;;;;33.10;42.90;;;;;;5061716;28;19992;-96
2022/08/28 12:24:44;;;;;;;;;;;33.20;43.00;;;;;;5061031;28;19955;-96
2022/08/28 12:27:09;;;;;;;;;;;33.70;42.80;;;;;;5062273;28;19963;-96
2022/08/28 12:29:42;;;;;;;;;;;34.00;41.60;;;;;;5062211;28;19944;-96
2022/08/28 12:32:27;;;;;;;;;;;33.70;40.90;;;;;;5062817;28;19948;-96
2022/08/28 12:34:56;;;;;;;;;;;34.10;41.00;;;;;;5062621;28;19952;-96
2022/08/28 12:37:24;;;;;;;;;;;34.70;38.90;;;;;;5063553;28;19965;-96
2022/08/28 12:39:51;;;;;;;;;;;34.90;37.90;;;;;;5059996;28;20305;-96
2022/08/28 12:42:18;;;;;;;;;;;34.50;38.70;;;;;;5060065;28;19942;-96
2022/08/28 12:44:44;;;;;;;;;;;35.00;38.30;;;;;;5061530;28;19996;-96
2022/08/28 12:47:15;;;;;;;;;;;36.00;38.90;;;;;;5059982;28;20000;-96
2022/08/28 12:49:40;;;;;;;;;;;36.60;36.30;;;;;;5060389;28;19942;-96
2022/08/28 12:52:17;;;;;;;;;;;37.20;35.40;;;;;;5059968;28;20052;-96
2022/08/28 12:54:43;;;;;;;;;;;38.30;33.50;;;;;;5060307;28;19942;-96
2022/08/28 12:57:10;;;;;;;;;;;39.20;33.10;;;;;;5058787;28;19982;-96
2022/08/28 12:59:38;;;;;;;;;;;39.90;32.70;;;;;;5059991;28;19947;-96
2022/08/28 13:02:06;;;;;;;;;;;40.20;29.50;;;;;;5064772;28;19946;-96
2022/08/28 13:04:35;;;;;;;;;;;38.80;31.00;;;;;;5062707;28;19942;-96
2022/08/28 13:07:12;;;;;;;;;;;37.20;33.60;;;;;;5062347;28;19964;-96
2022/08/28 13:09:43;;;;;;;;;;;35.60;36.90;;;;;;5060162;28;20500;-96
2022/08/28 13:12:16;;;;;;;;;;;34.00;39.40;;;;;;5060357;28;19960;-96
2022/08/28 13:14:45;;;;;;;;;;;33.20;42.70;;;;;;5061220;28;20023;-96
2022/08/28 13:17:11;;;;;;;;;;;32.90;42.40;;;;;;5059604;28;19971;-96
2022/08/28 13:19:37;;;;;;;;;;;32.50;43.70;;;;;;5060994;28;19982;-95
2022/08/28 13:22:08;;;;;;;;;;;32.40;42.50;;;;;;5063326;28;19954;-96
2022/08/28 13:24:33;;;;;;;;;;;32.40;43.20;;;;;;5065050;28;19989;-96
2022/08/28 13:27:11;;;;;;;;;;;32.70;44.40;;;;;;5064304;28;19964;-96
2022/08/28 13:29:49;;;;;;;;;;;34.20;40.70;;;;;;5059023;28;19945;-96
2022/08/28 13:32:16;;;;;;;;;;;36.40;36.80;;;;;;5059445;28;19941;-96
2022/08/28 13:35:00;;;;;;;;;;;38.00;34.70;;;;;;5058815;28;19987;-96
2022/08/28 13:37:39;;;;;;;;;;;39.50;31.80;;;;;;5061505;28;19959;-96
2022/08/28 13:40:06;;;;;;;;;;;39.60;30.60;;;;;;5064417;28;19967;-96
2022/08/28 13:42:32;;;;;;;;;;;38.70;31.50;;;;;;5065991;28;19988;-96
2022/08/28 13:44:57;;;;;;;;;;;37.90;32.70;;;;;;5065695;28;19938;-96
2022/08/28 13:47:24;;;;;;;;;;;36.70;35.40;;;;;;5064689;28;20425;-96
2022/08/28 13:49:49;;;;;;;;;;;36.90;34.70;;;;;;5065109;28;19987;-96
2022/08/28 13:52:15;;;;;;;;;;;37.40;33.50;;;;;;5063545;28;19939;-96
2022/08/28 13:54:41;;;;;;;;;;;38.10;32.50;;;;;;5060426;28;19947;-96
2022/08/28 13:57:06;;;;;;;;;;;38.90;32.80;;;;;;5060642;28;20441;-96
2022/08/28 13:59:32;;;;;;;;;;;39.80;32.30;;;;;;5060421;28;20022;-96
2022/08/28 14:04:43;;;;;;;;;;;41.90;27.60;;;;;;5061744;28;19958;-96
2022/08/28 14:07:09;;;;;;;;;;;42.70;26.50;;;;;;5060506;28;20006;-96
2022/08/28 14:09:35;;;;;;;;;;;42.70;27.20;;;;;;5058543;28;19940;-96
2022/08/28 14:12:01;;;;;;;;;;;42.20;28.30;;;;;;5059814;28;19948;-96
2022/08/28 14:14:27;;;;;;;;;;;41.50;27.40;;;;;;5059810;28;19935;-96
2022/08/28 14:16:53;;;;;;;;;;;41.10;27.80;;;;;;5061468;28;19942;-96
2022/08/28 14:19:19;;;;;;;;;;;39.70;29.90;;;;;;5061898;28;19971;-96
2022/08/28 14:21:44;;;;;;;;;;;38.90;31.30;;;;;;5061188;28;19966;-96
2022/08/28 14:24:10;;;;;;;;;;;38.70;31.10;;;;;;5060098;28;19985;-96
2022/08/28 14:26:36;;;;;;;;;;;38.30;30.80;;;;;;5061729;28;19966;-96
2022/08/28 14:29:03;;;;;;;;;;;38.30;31.10;;;;;;5061444;28;20406;-96
2022/08/28 14:31:29;;;;;;;;;;;37.40;31.90;;;;;;5061219;28;19976;-96
2022/08/28 14:33:55;;;;;;;;;;;37.00;32.30;;;;;;5062423;28;19939;-96
2022/08/28 14:36:22;;;;;;;;;;;36.80;32.10;;;;;;5062447;28;20353;-96